sensor_id;sensor_type;location;lat;lon;timestamp;temperature;humidity
38118;DHT22;23928;47.562;7.508;2022-07-29T00:01:52;21.30;99.90
38118;DHT22;23928;47.562;7.508;2022-07-29T00:04:18;21.50;99.90
38118;DHT22;23928;47.562;7.508;2022-07-29T00:06:44;21.60;99.90
38118;DHT22;23928;47.562;7.508;2022-07-29T00:09:10;21.30;99.90
38118;DHT22;23928;47.562;7.508;2022-07-29T00:11:36;21.10;99.90
38118;DHT22;23928;47.562;7.508;2022-07-29T00:14:01;21.30;99.90
38118;DHT22;23928;47.562;7.508;2022-07-29T00:16:27;21.50;99.90
38118;DHT22;23928;47.562;7.508;2022-07-29T00:18:52;21.60;99.90
38118;DHT22;23928;47.562;7.508;2022-07-29T00:21:18;21.30;99.90
38118;DHT22;23928;47.562;7.508;2022-07-29T00:23:44;21.20;99.90
38118;DHT22;23928;47.562;7.508;2022-07-29T00:26:09;21.40;99.90
38118;DHT22;23928;47.562;7.508;2022-07-29T00:28:35;21.30;99.90
38118;DHT22;23928;47.562;7.508;2022-07-29T00:31:01;21.30;99.90
38118;DHT22;23928;47.562;7.508;2022-07-29T00:33:27;21.10;99.90
38118;DHT22;23928;47.562;7.508;2022-07-29T00:35:53;21.20;99.90
38118;DHT22;23928;47.562;7.508;2022-07-29T00:38:19;21.30;99.90
38118;DHT22;23928;47.562;7.508;2022-07-29T00:40:48;21.20;99.90
38118;DHT22;23928;47.562;7.508;2022-07-29T00:43:14;21.30;99.90
38118;DHT22;23928;47.562;7.508;2022-07-29T00:45:41;21.40;99.90
38118;DHT22;23928;47.562;7.508;2022-07-29T00:48:07;21.50;99.90
38118;DHT22;23928;47.562;7.508;2022-07-29T00:50:34;21.30;99.90
38118;DHT22;23928;47.562;7.508;2022-07-29T00:53:01;21.10;99.90
38118;DHT22;23928;47.562;7.508;2022-07-29T00:55:27;21.20;99.90
38118;DHT22;23928;47.562;7.508;2022-07-29T00:57:52;21.30;99.90
38118;DHT22;23928;47.562;7.508;2022-07-29T01:00:22;21.30;99.90
38118;DHT22;23928;47.562;7.508;2022-07-29T01:02:48;21.20;99.90
38118;DHT22;23928;47.562;7.508;2022-07-29T01:05:16;21.20;99.90
38118;DHT22;23928;47.562;7.508;2022-07-29T01:07:44;21.20;99.90
38118;DHT22;23928;47.562;7.508;2022-07-29T01:10:12;21.30;99.90
38118;DHT22;23928;47.562;7.508;2022-07-29T01:12:39;21.30;99.90
38118;DHT22;23928;47.562;7.508;2022-07-29T01:15:07;21.30;99.90
38118;DHT22;23928;47.562;7.508;2022-07-29T01:17:50;21.30;99.90
38118;DHT22;23928;47.562;7.508;2022-07-29T01:23:07;21.30;99.90
38118;DHT22;23928;47.562;7.508;2022-07-29T01:31:11;21.20;99.90
38118;DHT22;23928;47.562;7.508;2022-07-29T01:33:41;21.20;99.90
38118;DHT22;23928;47.562;7.508;2022-07-29T01:36:28;21.20;99.90
38118;DHT22;23928;47.562;7.508;2022-07-29T01:39:14;21.10;99.90
38118;DHT22;23928;47.562;7.508;2022-07-29T01:41:50;21.10;99.90
38118;DHT22;23928;47.562;7.508;2022-07-29T01:44:27;21.20;99.90
38118;DHT22;23928;47.562;7.508;2022-07-29T01:46:58;20.90;99.90
38118;DHT22;23928;47.562;7.508;2022-07-29T01:49:32;20.30;99.90
38118;DHT22;23928;47.562;7.508;2022-07-29T01:52:05;20.60;99.90
38118;DHT22;23928;47.562;7.508;2022-07-29T01:54:39;20.70;99.90
38118;DHT22;23928;47.562;7.508;2022-07-29T01:57:09;20.30;99.90
38118;DHT22;23928;47.562;7.508;2022-07-29T01:59:37;20.50;99.90
38118;DHT22;23928;47.562;7.508;2022-07-29T02:02:04;20.60;99.90
38118;DHT22;23928;47.562;7.508;2022-07-29T02:04:33;20.50;99.90
38118;DHT22;23928;47.562;7.508;2022-07-29T02:07:02;20.40;99.90
38118;DHT22;23928;47.562;7.508;2022-07-29T02:09:30;20.50;99.90
38118;DHT22;23928;47.562;7.508;2022-07-29T02:11:58;20.70;99.90
38118;DHT22;23928;47.562;7.508;2022-07-29T02:14:27;20.80;99.90
38118;DHT22;23928;47.562;7.508;2022-07-29T02:16:55;20.80;99.90
38118;DHT22;23928;47.562;7.508;2022-07-29T02:19:25;20.60;99.90
38118;DHT22;23928;47.562;7.508;2022-07-29T02:21:53;20.20;99.90
38118;DHT22;23928;47.562;7.508;2022-07-29T02:24:21;20.20;99.90
38118;DHT22;23928;47.562;7.508;2022-07-29T02:26:49;20.40;99.90
38118;DHT22;23928;47.562;7.508;2022-07-29T02:29:17;20.50;99.90
38118;DHT22;23928;47.562;7.508;2022-07-29T02:31:46;20.40;99.90
38118;DHT22;23928;47.562;7.508;2022-07-29T02:34:15;20.50;99.90
38118;DHT22;23928;47.562;7.508;2022-07-29T02:36:43;20.50;99.90
38118;DHT22;23928;47.562;7.508;2022-07-29T02:39:11;20.30;99.90
38118;DHT22;23928;47.562;7.508;2022-07-29T02:41:47;20.30;99.90
38118;DHT22;23928;47.562;7.508;2022-07-29T02:44:15;20.20;99.90
38118;DHT22;23928;47.562;7.508;2022-07-29T02:47:06;20.20;99.90
38118;DHT22;23928;47.562;7.508;2022-07-29T02:49:38;20.20;99.90
38118;DHT22;23928;47.562;7.508;2022-07-29T02:52:08;20.30;99.90
38118;DHT22;23928;47.562;7.508;2022-07-29T02:54:56;20.20;99.90
38118;DHT22;23928;47.562;7.508;2022-07-29T02:57:37;20.10;99.90
38118;DHT22;23928;47.562;7.508;2022-07-29T03:00:06;20.20;99.90
38118;DHT22;23928;47.562;7.508;2022-07-29T03:02:36;20.40;99.90
38118;DHT22;23928;47.562;7.508;2022-07-29T03:05:04;20.50;99.90
38118;DHT22;23928;47.562;7.508;2022-07-29T03:07:32;20.60;99.90
38118;DHT22;23928;47.562;7.508;2022-07-29T03:09:59;20.50;99.90
38118;DHT22;23928;47.562;7.508;2022-07-29T03:12:26;20.60;99.90
38118;DHT22;23928;47.562;7.508;2022-07-29T03:14:53;20.60;99.90
38118;DHT22;23928;47.562;7.508;2022-07-29T03:17:20;20.60;99.90
38118;DHT22;23928;47.562;7.508;2022-07-29T03:19:46;20.30;99.90
38118;DHT22;23928;47.562;7.508;2022-07-29T03:22:13;20.10;99.90
38118;DHT22;23928;47.562;7.508;2022-07-29T03:24:39;20.10;99.90
38118;DHT22;23928;47.562;7.508;2022-07-29T03:27:05;20.30;99.90
38118;DHT22;23928;47.562;7.508;2022-07-29T03:29:31;20.40;99.90
38118;DHT22;23928;47.562;7.508;2022-07-29T03:31:57;20.50;99.90
38118;DHT22;23928;47.562;7.508;2022-07-29T03:34:23;20.60;99.90
38118;DHT22;23928;47.562;7.508;2022-07-29T03:36:49;20.60;99.90
38118;DHT22;23928;47.562;7.508;2022-07-29T03:39:20;20.50;99.90
38118;DHT22;23928;47.562;7.508;2022-07-29T03:41:48;20.50;99.90
38118;DHT22;23928;47.562;7.508;2022-07-29T03:44:16;20.30;99.90
38118;DHT22;23928;47.562;7.508;2022-07-29T03:46:44;20.10;99.90
38118;DHT22;23928;47.562;7.508;2022-07-29T03:49:11;20.00;99.90
38118;DHT22;23928;47.562;7.508;2022-07-29T03:51:38;20.10;99.90
38118;DHT22;23928;47.562;7.508;2022-07-29T03:54:04;20.30;99.90
38118;DHT22;23928;47.562;7.508;2022-07-29T03:56:32;20.30;99.90
38118;DHT22;23928;47.562;7.508;2022-07-29T03:59:01;20.10;99.90
38118;DHT22;23928;47.562;7.508;2022-07-29T04:01:28;19.90;99.90
38118;DHT22;23928;47.562;7.508;2022-07-29T04:03:54;19.70;99.90
38118;DHT22;23928;47.562;7.508;2022-07-29T04:06:19;19.60;99.90
38118;DHT22;23928;47.562;7.508;2022-07-29T04:08:45;19.60;99.90
38118;DHT22;23928;47.562;7.508;2022-07-29T04:11:11;19.70;99.90
38118;DHT22;23928;47.562;7.508;2022-07-29T04:13:36;19.90;99.90
38118;DHT22;23928;47.562;7.508;2022-07-29T04:16:02;19.80;99.90
38118;DHT22;23928;47.562;7.508;2022-07-29T04:18:28;20.00;99.90
38118;DHT22;23928;47.562;7.508;2022-07-29T04:20:53;20.00;99.90
38118;DHT22;23928;47.562;7.508;2022-07-29T04:23:19;20.10;99.90
38118;DHT22;23928;47.562;7.508;2022-07-29T04:25:45;20.30;99.90
38118;DHT22;23928;47.562;7.508;2022-07-29T04:28:10;20.30;99.90
38118;DHT22;23928;47.562;7.508;2022-07-29T04:30:37;20.30;99.90
38118;DHT22;23928;47.562;7.508;2022-07-29T04:33:05;20.10;99.90
38118;DHT22;23928;47.562;7.508;2022-07-29T04:35:36;20.20;99.90
38118;DHT22;23928;47.562;7.508;2022-07-29T04:38:03;20.30;99.90
38118;DHT22;23928;47.562;7.508;2022-07-29T04:40:28;20.30;99.90
38118;DHT22;23928;47.562;7.508;2022-07-29T04:42:54;20.30;99.90
38118;DHT22;23928;47.562;7.508;2022-07-29T04:45:20;20.40;99.90
38118;DHT22;23928;47.562;7.508;2022-07-29T04:47:46;20.20;99.90
38118;DHT22;23928;47.562;7.508;2022-07-29T04:50:11;19.90;99.90
38118;DHT22;23928;47.562;7.508;2022-07-29T04:52:37;20.00;99.90
38118;DHT22;23928;47.562;7.508;2022-07-29T04:55:04;20.30;99.90
38118;DHT22;23928;47.562;7.508;2022-07-29T04:57:30;20.40;99.90
38118;DHT22;23928;47.562;7.508;2022-07-29T04:59:55;20.60;99.90
38118;DHT22;23928;47.562;7.508;2022-07-29T05:02:21;20.60;99.90
38118;DHT22;23928;47.562;7.508;2022-07-29T05:04:47;20.70;99.90
38118;DHT22;23928;47.562;7.508;2022-07-29T05:07:13;20.40;99.90
38118;DHT22;23928;47.562;7.508;2022-07-29T05:09:39;20.40;99.90
38118;DHT22;23928;47.562;7.508;2022-07-29T05:12:06;20.60;99.90
38118;DHT22;23928;47.562;7.508;2022-07-29T05:14:32;20.70;99.90
38118;DHT22;23928;47.562;7.508;2022-07-29T05:16:57;20.50;99.90
38118;DHT22;23928;47.562;7.508;2022-07-29T05:19:23;20.40;99.90
38118;DHT22;23928;47.562;7.508;2022-07-29T05:21:49;20.30;99.90
38118;DHT22;23928;47.562;7.508;2022-07-29T05:24:15;20.50;99.90
38118;DHT22;23928;47.562;7.508;2022-07-29T05:26:41;20.50;99.90
38118;DHT22;23928;47.562;7.508;2022-07-29T05:29:07;20.40;99.90
38118;DHT22;23928;47.562;7.508;2022-07-29T05:31:33;20.40;99.90
38118;DHT22;23928;47.562;7.508;2022-07-29T05:33:59;20.60;99.90
38118;DHT22;23928;47.562;7.508;2022-07-29T05:36:24;20.90;99.90
38118;DHT22;23928;47.562;7.508;2022-07-29T05:38:50;20.80;99.90
38118;DHT22;23928;47.562;7.508;2022-07-29T05:41:17;20.90;99.90
38118;DHT22;23928;47.562;7.508;2022-07-29T05:43:43;20.90;99.90
38118;DHT22;23928;47.562;7.508;2022-07-29T05:46:09;20.90;99.90
38118;DHT22;23928;47.562;7.508;2022-07-29T05:48:34;20.90;99.90
38118;DHT22;23928;47.562;7.508;2022-07-29T05:51:00;20.90;99.90
38118;DHT22;23928;47.562;7.508;2022-07-29T05:53:26;20.90;99.90
38118;DHT22;23928;47.562;7.508;2022-07-29T05:55:52;20.90;99.90
38118;DHT22;23928;47.562;7.508;2022-07-29T05:58:18;20.70;99.90
38118;DHT22;23928;47.562;7.508;2022-07-29T06:00:43;20.50;99.90
38118;DHT22;23928;47.562;7.508;2022-07-29T06:03:09;20.60;99.90
38118;DHT22;23928;47.562;7.508;2022-07-29T06:05:35;20.80;99.90
38118;DHT22;23928;47.562;7.508;2022-07-29T06:08:01;21.00;99.90
38118;DHT22;23928;47.562;7.508;2022-07-29T06:10:26;21.20;99.90
38118;DHT22;23928;47.562;7.508;2022-07-29T06:12:52;21.20;99.90
38118;DHT22;23928;47.562;7.508;2022-07-29T06:15:18;21.10;99.90
38118;DHT22;23928;47.562;7.508;2022-07-29T06:17:43;21.20;99.90
38118;DHT22;23928;47.562;7.508;2022-07-29T06:20:09;21.30;99.90
38118;DHT22;23928;47.562;7.508;2022-07-29T06:22:35;21.40;99.90
38118;DHT22;23928;47.562;7.508;2022-07-29T06:25:02;21.50;99.90
38118;DHT22;23928;47.562;7.508;2022-07-29T06:27:28;21.40;99.90
38118;DHT22;23928;47.562;7.508;2022-07-29T06:29:53;21.50;99.90
38118;DHT22;23928;47.562;7.508;2022-07-29T06:32:19;21.50;99.90
38118;DHT22;23928;47.562;7.508;2022-07-29T06:34:45;21.40;99.90
38118;DHT22;23928;47.562;7.508;2022-07-29T06:37:10;21.40;99.90
38118;DHT22;23928;47.562;7.508;2022-07-29T06:39:36;21.20;99.90
38118;DHT22;23928;47.562;7.508;2022-07-29T06:42:03;21.20;99.90
38118;DHT22;23928;47.562;7.508;2022-07-29T06:44:29;21.20;99.90
38118;DHT22;23928;47.562;7.508;2022-07-29T06:46:56;21.20;99.90
38118;DHT22;23928;47.562;7.508;2022-07-29T06:49:22;21.30;99.90
38118;DHT22;23928;47.562;7.508;2022-07-29T06:51:48;21.40;99.90
38118;DHT22;23928;47.562;7.508;2022-07-29T06:54:14;21.30;99.90
38118;DHT22;23928;47.562;7.508;2022-07-29T06:56:40;21.20;99.90
38118;DHT22;23928;47.562;7.508;2022-07-29T06:59:11;21.00;99.90
38118;DHT22;23928;47.562;7.508;2022-07-29T07:01:40;20.90;99.90
38118;DHT22;23928;47.562;7.508;2022-07-29T07:04:06;20.90;99.90
38118;DHT22;23928;47.562;7.508;2022-07-29T07:06:34;21.00;99.90
38118;DHT22;23928;47.562;7.508;2022-07-29T07:08:59;21.00;99.90
38118;DHT22;23928;47.562;7.508;2022-07-29T07:11:25;21.00;99.90
38118;DHT22;23928;47.562;7.508;2022-07-29T07:13:51;21.10;99.90
38118;DHT22;23928;47.562;7.508;2022-07-29T07:16:16;21.20;99.90
38118;DHT22;23928;47.562;7.508;2022-07-29T07:18:42;21.40;99.90
38118;DHT22;23928;47.562;7.508;2022-07-29T07:21:07;21.40;99.90
38118;DHT22;23928;47.562;7.508;2022-07-29T07:23:33;21.20;99.90
38118;DHT22;23928;47.562;7.508;2022-07-29T07:25:59;21.30;99.90
38118;DHT22;23928;47.562;7.508;2022-07-29T07:28:24;21.50;99.90
38118;DHT22;23928;47.562;7.508;2022-07-29T07:30:50;21.50;99.90
38118;DHT22;23928;47.562;7.508;2022-07-29T07:33:16;21.60;99.90
38118;DHT22;23928;47.562;7.508;2022-07-29T07:35:41;21.50;99.90
38118;DHT22;23928;47.562;7.508;2022-07-29T07:38:07;21.50;99.90
38118;DHT22;23928;47.562;7.508;2022-07-29T07:40:33;21.50;99.90
38118;DHT22;23928;47.562;7.508;2022-07-29T07:42:58;21.50;99.90
38118;DHT22;23928;47.562;7.508;2022-07-29T07:45:24;21.30;99.90
38118;DHT22;23928;47.562;7.508;2022-07-29T07:47:50;21.50;99.90
38118;DHT22;23928;47.562;7.508;2022-07-29T07:50:16;21.60;99.90
38118;DHT22;23928;47.562;7.508;2022-07-29T07:52:50;21.40;99.90
38118;DHT22;23928;47.562;7.508;2022-07-29T07:55:16;21.40;99.90
38118;DHT22;23928;47.562;7.508;2022-07-29T07:57:42;21.70;99.90
38118;DHT22;23928;47.562;7.508;2022-07-29T08:00:08;21.70;99.90
38118;DHT22;23928;47.562;7.508;2022-07-29T08:02:34;21.80;99.90
38118;DHT22;23928;47.562;7.508;2022-07-29T08:05:00;21.80;99.90
38118;DHT22;23928;47.562;7.508;2022-07-29T08:07:26;21.80;99.90
38118;DHT22;23928;47.562;7.508;2022-07-29T08:09:51;21.90;99.90
38118;DHT22;23928;47.562;7.508;2022-07-29T08:12:17;22.20;99.90
38118;DHT22;23928;47.562;7.508;2022-07-29T08:14:42;22.40;99.90
38118;DHT22;23928;47.562;7.508;2022-07-29T08:17:08;22.40;99.90
38118;DHT22;23928;47.562;7.508;2022-07-29T08:19:34;22.30;99.90
38118;DHT22;23928;47.562;7.508;2022-07-29T08:21:59;22.50;99.90
38118;DHT22;23928;47.562;7.508;2022-07-29T08:24:25;22.80;99.90
38118;DHT22;23928;47.562;7.508;2022-07-29T08:27:13;22.80;99.90
38118;DHT22;23928;47.562;7.508;2022-07-29T08:29:39;22.90;99.90
38118;DHT22;23928;47.562;7.508;2022-07-29T08:32:05;22.70;99.90
38118;DHT22;23928;47.562;7.508;2022-07-29T08:34:31;22.60;99.90
38118;DHT22;23928;47.562;7.508;2022-07-29T08:36:57;22.70;99.90
38118;DHT22;23928;47.562;7.508;2022-07-29T08:39:24;23.00;99.90
38118;DHT22;23928;47.562;7.508;2022-07-29T08:41:50;23.30;99.90
38118;DHT22;23928;47.562;7.508;2022-07-29T08:44:17;23.30;99.90
38118;DHT22;23928;47.562;7.508;2022-07-29T08:46:43;23.00;99.90
38118;DHT22;23928;47.562;7.508;2022-07-29T08:49:09;23.20;99.90
38118;DHT22;23928;47.562;7.508;2022-07-29T08:51:36;23.30;99.90
38118;DHT22;23928;47.562;7.508;2022-07-29T08:54:05;23.40;99.90
38118;DHT22;23928;47.562;7.508;2022-07-29T08:56:31;23.40;99.90
38118;DHT22;23928;47.562;7.508;2022-07-29T08:58:58;23.50;99.90
38118;DHT22;23928;47.562;7.508;2022-07-29T09:01:27;23.70;99.90
38118;DHT22;23928;47.562;7.508;2022-07-29T09:03:56;23.60;99.90
38118;DHT22;23928;47.562;7.508;2022-07-29T09:06:24;23.70;99.90
38118;DHT22;23928;47.562;7.508;2022-07-29T09:08:53;24.00;99.90
38118;DHT22;23928;47.562;7.508;2022-07-29T09:11:20;24.70;99.90
38118;DHT22;23928;47.562;7.508;2022-07-29T09:13:46;24.90;99.90
38118;DHT22;23928;47.562;7.508;2022-07-29T09:16:11;25.00;99.90
38118;DHT22;23928;47.562;7.508;2022-07-29T09:18:40;25.10;99.90
38118;DHT22;23928;47.562;7.508;2022-07-29T09:21:08;25.40;99.90
38118;DHT22;23928;47.562;7.508;2022-07-29T09:24:05;25.80;99.90
38118;DHT22;23928;47.562;7.508;2022-07-29T09:26:33;25.80;99.90
38118;DHT22;23928;47.562;7.508;2022-07-29T09:28:59;25.70;99.90
38118;DHT22;23928;47.562;7.508;2022-07-29T09:31:37;26.00;99.90
38118;DHT22;23928;47.562;7.508;2022-07-29T09:34:04;26.00;99.90
38118;DHT22;23928;47.562;7.508;2022-07-29T09:36:30;25.90;99.90
38118;DHT22;23928;47.562;7.508;2022-07-29T09:39:01;26.00;99.90
38118;DHT22;23928;47.562;7.508;2022-07-29T09:41:28;25.90;99.90
38118;DHT22;23928;47.562;7.508;2022-07-29T09:43:58;26.20;99.90
38118;DHT22;23928;47.562;7.508;2022-07-29T09:46:24;26.20;99.90
38118;DHT22;23928;47.562;7.508;2022-07-29T09:49:10;25.20;99.90
38118;DHT22;23928;47.562;7.508;2022-07-29T09:51:36;24.70;99.90
38118;DHT22;23928;47.562;7.508;2022-07-29T09:54:24;24.60;99.90
38118;DHT22;23928;47.562;7.508;2022-07-29T09:56:49;24.90;99.90
38118;DHT22;23928;47.562;7.508;2022-07-29T09:59:15;25.60;99.90
38118;DHT22;23928;47.562;7.508;2022-07-29T10:01:41;25.50;99.90
38118;DHT22;23928;47.562;7.508;2022-07-29T10:04:06;25.50;99.90
38118;DHT22;23928;47.562;7.508;2022-07-29T10:06:32;25.90;99.90
38118;DHT22;23928;47.562;7.508;2022-07-29T10:09:10;25.80;99.90
38118;DHT22;23928;47.562;7.508;2022-07-29T10:11:36;25.50;99.90
38118;DHT22;23928;47.562;7.508;2022-07-29T10:14:03;25.80;99.90
38118;DHT22;23928;47.562;7.508;2022-07-29T10:16:30;25.70;99.90
38118;DHT22;23928;47.562;7.508;2022-07-29T10:19:01;25.10;99.90
38118;DHT22;23928;47.562;7.508;2022-07-29T10:21:27;25.20;99.90
38118;DHT22;23928;47.562;7.508;2022-07-29T10:23:53;25.20;99.90
38118;DHT22;23928;47.562;7.508;2022-07-29T10:26:20;25.40;99.90
38118;DHT22;23928;47.562;7.508;2022-07-29T10:28:45;25.80;99.90
38118;DHT22;23928;47.562;7.508;2022-07-29T10:31:19;25.30;99.90
38118;DHT22;23928;47.562;7.508;2022-07-29T10:33:54;25.50;99.90
38118;DHT22;23928;47.562;7.508;2022-07-29T10:36:45;25.60;99.90
38118;DHT22;23928;47.562;7.508;2022-07-29T10:42:25;26.00;99.90
38118;DHT22;23928;47.562;7.508;2022-07-29T10:44:53;26.00;99.90
38118;DHT22;23928;47.562;7.508;2022-07-29T10:47:26;25.70;99.90
38118;DHT22;23928;47.562;7.508;2022-07-29T10:50:02;26.00;99.90
38118;DHT22;23928;47.562;7.508;2022-07-29T10:55:48;25.50;99.90
38118;DHT22;23928;47.562;7.508;2022-07-29T11:00:43;24.80;99.90
38118;DHT22;23928;47.562;7.508;2022-07-29T11:03:09;24.80;99.90
38118;DHT22;23928;47.562;7.508;2022-07-29T11:05:54;24.70;99.90
38118;DHT22;23928;47.562;7.508;2022-07-29T11:08:21;24.50;99.90
38118;DHT22;23928;47.562;7.508;2022-07-29T11:10:50;24.50;99.90
38118;DHT22;23928;47.562;7.508;2022-07-29T11:16:09;24.40;99.90
38118;DHT22;23928;47.562;7.508;2022-07-29T11:18:35;24.20;99.90
38118;DHT22;23928;47.562;7.508;2022-07-29T11:21:00;24.20;99.90
38118;DHT22;23928;47.562;7.508;2022-07-29T11:23:35;24.10;99.90
38118;DHT22;23928;47.562;7.508;2022-07-29T11:29:06;24.00;99.90
38118;DHT22;23928;47.562;7.508;2022-07-29T11:31:41;23.90;99.90
38118;DHT22;23928;47.562;7.508;2022-07-29T11:34:30;23.80;99.90
38118;DHT22;23928;47.562;7.508;2022-07-29T11:39:34;24.00;99.90
38118;DHT22;23928;47.562;7.508;2022-07-29T11:45:10;23.50;99.90
38118;DHT22;23928;47.562;7.508;2022-07-29T11:47:47;23.30;99.90
38118;DHT22;23928;47.562;7.508;2022-07-29T11:50:31;23.10;99.90
38118;DHT22;23928;47.562;7.508;2022-07-29T11:52:58;22.60;99.90
38118;DHT22;23928;47.562;7.508;2022-07-29T11:55:24;22.30;99.90
38118;DHT22;23928;47.562;7.508;2022-07-29T11:57:58;22.50;99.90
38118;DHT22;23928;47.562;7.508;2022-07-29T12:00:31;22.60;99.90
38118;DHT22;23928;47.562;7.508;2022-07-29T12:02:59;22.90;99.90
38118;DHT22;23928;47.562;7.508;2022-07-29T12:05:37;23.10;99.90
38118;DHT22;23928;47.562;7.508;2022-07-29T12:08:16;22.90;99.90
38118;DHT22;23928;47.562;7.508;2022-07-29T12:10:45;22.90;99.90
38118;DHT22;23928;47.562;7.508;2022-07-29T12:13:13;23.10;99.90
38118;DHT22;23928;47.562;7.508;2022-07-29T12:15:40;23.10;99.90
38118;DHT22;23928;47.562;7.508;2022-07-29T12:18:14;23.00;99.90
38118;DHT22;23928;47.562;7.508;2022-07-29T12:20:40;23.00;99.90
38118;DHT22;23928;47.562;7.508;2022-07-29T12:23:07;23.00;99.90
38118;DHT22;23928;47.562;7.508;2022-07-29T12:25:34;22.70;99.90
38118;DHT22;23928;47.562;7.508;2022-07-29T12:28:08;22.50;99.90
38118;DHT22;23928;47.562;7.508;2022-07-29T12:30:43;22.60;99.90
38118;DHT22;23928;47.562;7.508;2022-07-29T12:33:13;22.70;99.90
38118;DHT22;23928;47.562;7.508;2022-07-29T12:35:40;22.90;99.90
38118;DHT22;23928;47.562;7.508;2022-07-29T12:38:08;23.10;99.90
38118;DHT22;23928;47.562;7.508;2022-07-29T12:40:34;23.10;99.90
38118;DHT22;23928;47.562;7.508;2022-07-29T12:43:16;22.90;99.90
38118;DHT22;23928;47.562;7.508;2022-07-29T12:45:45;22.80;99.90
38118;DHT22;23928;47.562;7.508;2022-07-29T12:48:11;22.60;99.90
38118;DHT22;23928;47.562;7.508;2022-07-29T12:50:52;22.50;99.90
38118;DHT22;23928;47.562;7.508;2022-07-29T12:53:18;22.80;99.90
38118;DHT22;23928;47.562;7.508;2022-07-29T12:55:46;22.60;99.90
38118;DHT22;23928;47.562;7.508;2022-07-29T13:01:05;22.60;99.90
38118;DHT22;23928;47.562;7.508;2022-07-29T13:06:32;23.10;99.90
38118;DHT22;23928;47.562;7.508;2022-07-29T13:09:17;23.40;99.90
38118;DHT22;23928;47.562;7.508;2022-07-29T13:11:44;23.70;99.90
38118;DHT22;23928;47.562;7.508;2022-07-29T13:14:13;23.90;99.90
38118;DHT22;23928;47.562;7.508;2022-07-29T13:22:08;24.10;99.90
38118;DHT22;23928;47.562;7.508;2022-07-29T13:24:48;24.10;99.90
38118;DHT22;23928;47.562;7.508;2022-07-29T13:27:18;24.30;99.90
38118;DHT22;23928;47.562;7.508;2022-07-29T13:29:44;24.30;99.90
38118;DHT22;23928;47.562;7.508;2022-07-29T13:32:11;24.40;99.90
38118;DHT22;23928;47.562;7.508;2022-07-29T13:34:37;24.40;99.90
38118;DHT22;23928;47.562;7.508;2022-07-29T13:37:03;24.40;99.90
38118;DHT22;23928;47.562;7.508;2022-07-29T13:39:28;24.70;99.90
38118;DHT22;23928;47.562;7.508;2022-07-29T13:41:55;24.60;99.90
38118;DHT22;23928;47.562;7.508;2022-07-29T13:44:21;24.60;99.90
38118;DHT22;23928;47.562;7.508;2022-07-29T13:46:47;24.60;99.90
38118;DHT22;23928;47.562;7.508;2022-07-29T13:49:12;24.40;99.90
38118;DHT22;23928;47.562;7.508;2022-07-29T13:51:38;24.50;99.90
38118;DHT22;23928;47.562;7.508;2022-07-29T13:54:04;24.50;99.90
38118;DHT22;23928;47.562;7.508;2022-07-29T13:56:30;24.70;99.90
38118;DHT22;23928;47.562;7.508;2022-07-29T13:58:56;24.50;99.90
38118;DHT22;23928;47.562;7.508;2022-07-29T14:01:22;24.80;99.90
38118;DHT22;23928;47.562;7.508;2022-07-29T14:03:48;24.70;99.90
38118;DHT22;23928;47.562;7.508;2022-07-29T14:06:15;24.80;99.90
38118;DHT22;23928;47.562;7.508;2022-07-29T14:08:41;25.00;99.90
38118;DHT22;23928;47.562;7.508;2022-07-29T14:11:07;25.20;99.90
38118;DHT22;23928;47.562;7.508;2022-07-29T14:13:32;25.30;99.90
38118;DHT22;23928;47.562;7.508;2022-07-29T14:15:58;25.20;99.90
38118;DHT22;23928;47.562;7.508;2022-07-29T14:18:24;25.30;99.90
38118;DHT22;23928;47.562;7.508;2022-07-29T14:20:49;25.10;99.90
38118;DHT22;23928;47.562;7.508;2022-07-29T14:23:16;24.80;99.90
38118;DHT22;23928;47.562;7.508;2022-07-29T14:25:42;24.70;99.90
38118;DHT22;23928;47.562;7.508;2022-07-29T14:28:08;24.70;99.90
38118;DHT22;23928;47.562;7.508;2022-07-29T14:30:33;24.60;99.90
38118;DHT22;23928;47.562;7.508;2022-07-29T14:32:59;24.50;99.90
38118;DHT22;23928;47.562;7.508;2022-07-29T14:35:25;24.60;99.90
38118;DHT22;23928;47.562;7.508;2022-07-29T14:37:50;24.80;99.90
38118;DHT22;23928;47.562;7.508;2022-07-29T14:40:16;25.10;99.90
38118;DHT22;23928;47.562;7.508;2022-07-29T14:42:41;24.90;99.90
38118;DHT22;23928;47.562;7.508;2022-07-29T14:45:08;25.20;99.90
38118;DHT22;23928;47.562;7.508;2022-07-29T14:47:34;24.80;99.90
38118;DHT22;23928;47.562;7.508;2022-07-29T14:50:01;25.10;99.90
38118;DHT22;23928;47.562;7.508;2022-07-29T14:52:26;25.10;99.90
38118;DHT22;23928;47.562;7.508;2022-07-29T14:54:52;25.40;99.90
38118;DHT22;23928;47.562;7.508;2022-07-29T14:57:18;25.60;99.90
38118;DHT22;23928;47.562;7.508;2022-07-29T14:59:43;25.70;99.90
38118;DHT22;23928;47.562;7.508;2022-07-29T15:02:09;25.30;99.90
38118;DHT22;23928;47.562;7.508;2022-07-29T15:04:35;25.40;99.90
38118;DHT22;23928;47.562;7.508;2022-07-29T15:07:01;25.50;99.90
38118;DHT22;23928;47.562;7.508;2022-07-29T15:09:26;25.80;99.90
38118;DHT22;23928;47.562;7.508;2022-07-29T15:11:52;25.80;99.90
38118;DHT22;23928;47.562;7.508;2022-07-29T15:14:17;25.80;99.90
38118;DHT22;23928;47.562;7.508;2022-07-29T15:16:43;25.80;99.90
38118;DHT22;23928;47.562;7.508;2022-07-29T15:19:09;25.70;99.90
38118;DHT22;23928;47.562;7.508;2022-07-29T15:21:35;25.80;99.90
38118;DHT22;23928;47.562;7.508;2022-07-29T15:24:00;25.70;99.90
38118;DHT22;23928;47.562;7.508;2022-07-29T15:26:26;25.90;99.90
38118;DHT22;23928;47.562;7.508;2022-07-29T15:28:52;26.10;99.90
38118;DHT22;23928;47.562;7.508;2022-07-29T15:31:18;26.50;99.90
38118;DHT22;23928;47.562;7.508;2022-07-29T15:33:44;26.50;99.90
38118;DHT22;23928;47.562;7.508;2022-07-29T15:36:10;26.80;99.90
38118;DHT22;23928;47.562;7.508;2022-07-29T15:38:37;27.00;99.90
38118;DHT22;23928;47.562;7.508;2022-07-29T15:41:04;27.00;99.90
38118;DHT22;23928;47.562;7.508;2022-07-29T15:43:30;26.70;99.90
38118;DHT22;23928;47.562;7.508;2022-07-29T15:45:56;27.80;99.90
38118;DHT22;23928;47.562;7.508;2022-07-29T15:48:40;28.30;99.90
38118;DHT22;23928;47.562;7.508;2022-07-29T15:51:06;28.80;99.90
38118;DHT22;23928;47.562;7.508;2022-07-29T15:53:31;28.80;99.90
38118;DHT22;23928;47.562;7.508;2022-07-29T15:55:58;28.90;99.90
38118;DHT22;23928;47.562;7.508;2022-07-29T15:58:23;28.90;99.90
38118;DHT22;23928;47.562;7.508;2022-07-29T16:00:49;29.00;99.90
38118;DHT22;23928;47.562;7.508;2022-07-29T16:03:15;29.00;99.90
38118;DHT22;23928;47.562;7.508;2022-07-29T16:05:41;29.50;99.90
38118;DHT22;23928;47.562;7.508;2022-07-29T16:08:07;29.20;99.90
38118;DHT22;23928;47.562;7.508;2022-07-29T16:10:32;29.10;99.90
38118;DHT22;23928;47.562;7.508;2022-07-29T16:12:58;29.20;99.90
38118;DHT22;23928;47.562;7.508;2022-07-29T16:15:24;29.50;99.90